sensor_id;sensor_type;location;lat;lon;timestamp;pressure;altitude;pressure_sealevel;temperature;humidity
33161;BME280;19522;45.656;11.302;2023-03-22T00:01:15;98302.75;;;12.34;66.88
33161;BME280;19522;45.656;11.302;2023-03-22T00:03:41;98315.53;;;12.40;67.09
33161;BME280;19522;45.656;11.302;2023-03-22T00:06:07;98313.81;;;12.32;67.07
33161;BME280;19522;45.656;11.302;2023-03-22T00:08:34;98314.25;;;12.36;67.17
33161;BME280;19522;45.656;11.302;2023-03-22T00:10:59;98305.25;;;12.36;67.16
33161;BME280;19522;45.656;11.302;2023-03-22T00:13:25;98285.56;;;12.34;66.60
33161;BME280;19522;45.656;11.302;2023-03-22T00:15:51;98311.44;;;12.16;68.04
33161;BME280;19522;45.656;11.302;2023-03-22T00:18:17;98314.81;;;12.18;67.93
33161;BME280;19522;45.656;11.302;2023-03-22T00:20:51;98307.94;;;12.29;67.57
33161;BME280;19522;45.656;11.302;2023-03-22T00:23:17;98316.53;;;12.32;66.96
33161;BME280;19522;45.656;11.302;2023-03-22T00:25:44;98305.00;;;12.24;67.03
33161;BME280;19522;45.656;11.302;2023-03-22T00:28:10;98315.72;;;12.32;67.02
33161;BME280;19522;45.656;11.302;2023-03-22T00:30:36;98309.41;;;12.25;67.43
33161;BME280;19522;45.656;11.302;2023-03-22T00:33:01;98315.47;;;12.27;67.81
33161;BME280;19522;45.656;11.302;2023-03-22T00:35:27;98304.69;;;12.47;67.08
33161;BME280;19522;45.656;11.302;2023-03-22T00:37:52;98306.69;;;12.31;66.97
33161;BME280;19522;45.656;11.302;2023-03-22T00:40:18;98293.44;;;12.15;67.66
33161;BME280;19522;45.656;11.302;2023-03-22T00:42:43;98306.41;;;12.06;68.26
33161;BME280;19522;45.656;11.302;2023-03-22T00:45:10;98285.53;;;12.27;67.50
33161;BME280;19522;45.656;11.302;2023-03-22T00:47:36;98300.59;;;12.23;67.66
33161;BME280;19522;45.656;11.302;2023-03-22T00:50:03;98271.94;;;11.92;68.50
33161;BME280;19522;45.656;11.302;2023-03-22T00:52:29;98288.88;;;11.87;69.14
33161;BME280;19522;45.656;11.302;2023-03-22T00:54:55;98265.50;;;11.64;69.57
33161;BME280;19522;45.656;11.302;2023-03-22T00:57:21;98292.19;;;11.82;69.37
33161;BME280;19522;45.656;11.302;2023-03-22T00:59:46;98287.00;;;11.88;69.29
33161;BME280;19522;45.656;11.302;2023-03-22T01:02:12;98284.75;;;11.98;69.26
33161;BME280;19522;45.656;11.302;2023-03-22T01:04:39;98279.88;;;11.87;69.86
33161;BME280;19522;45.656;11.302;2023-03-22T01:07:15;98279.97;;;12.00;69.28
33161;BME280;19522;45.656;11.302;2023-03-22T01:09:49;98274.44;;;11.87;69.57
33161;BME280;19522;45.656;11.302;2023-03-22T01:12:16;98286.44;;;11.64;70.51
33161;BME280;19522;45.656;11.302;2023-03-22T01:14:42;98265.75;;;11.34;71.33
33161;BME280;19522;45.656;11.302;2023-03-22T01:17:08;98261.50;;;11.25;71.81
33161;BME280;19522;45.656;11.302;2023-03-22T01:19:35;98223.63;;;10.95;72.11
33161;BME280;19522;45.656;11.302;2023-03-22T01:22:03;98268.00;;;11.31;72.11
33161;BME280;19522;45.656;11.302;2023-03-22T01:24:28;98278.97;;;11.44;71.89
33161;BME280;19522;45.656;11.302;2023-03-22T01:26:54;98277.28;;;11.43;71.70
33161;BME280;19522;45.656;11.302;2023-03-22T01:29:20;98277.28;;;11.43;71.72
33161;BME280;19522;45.656;11.302;2023-03-22T01:31:46;98278.59;;;11.47;71.65
33161;BME280;19522;45.656;11.302;2023-03-22T01:34:11;98275.44;;;11.50;71.41
33161;BME280;19522;45.656;11.302;2023-03-22T01:36:37;98267.72;;;11.47;71.15
33161;BME280;19522;45.656;11.302;2023-03-22T01:39:02;98278.78;;;11.46;71.59
33161;BME280;19522;45.656;11.302;2023-03-22T01:41:28;98280.28;;;11.55;71.63
33161;BME280;19522;45.656;11.302;2023-03-22T01:44:12;98277.94;;;11.45;71.68
33161;BME280;19522;45.656;11.302;2023-03-22T01:46:39;98284.41;;;11.44;72.16
33161;BME280;19522;45.656;11.302;2023-03-22T01:49:08;98281.16;;;11.56;71.58
33161;BME280;19522;45.656;11.302;2023-03-22T01:51:37;98254.63;;;11.64;70.78
33161;BME280;19522;45.656;11.302;2023-03-22T01:54:08;98269.94;;;11.72;70.60
33161;BME280;19522;45.656;11.302;2023-03-22T01:56:36;98273.63;;;11.58;71.47
33161;BME280;19522;45.656;11.302;2023-03-22T01:59:04;98268.25;;;11.36;72.17
33161;BME280;19522;45.656;11.302;2023-03-22T02:01:31;98273.63;;;11.29;72.45
33161;BME280;19522;45.656;11.302;2023-03-22T02:04:05;98263.56;;;11.23;72.60
33161;BME280;19522;45.656;11.302;2023-03-22T02:06:33;98269.91;;;11.09;73.73
33161;BME280;19522;45.656;11.302;2023-03-22T02:09:10;98278.25;;;11.29;73.42
33161;BME280;19522;45.656;11.302;2023-03-22T02:11:39;98273.69;;;11.36;73.12
33161;BME280;19522;45.656;11.302;2023-03-22T02:15:02;98255.47;;;11.30;72.89
33161;BME280;19522;45.656;11.302;2023-03-22T02:28:30;98253.75;;;11.00;73.69
33161;BME280;19522;45.656;11.302;2023-03-22T02:39:50;98271.91;;;11.21;73.87
33161;BME280;19522;45.656;11.302;2023-03-22T02:49:58;98263.78;;;11.00;74.60
33161;BME280;19522;45.656;11.302;2023-03-22T02:52:37;98269.59;;;10.97;74.50
33161;BME280;19522;45.656;11.302;2023-03-22T02:57:36;98258.56;;;10.77;75.94
33161;BME280;19522;45.656;11.302;2023-03-22T03:00:07;98258.66;;;10.68;76.32
33161;BME280;19522;45.656;11.302;2023-03-22T03:02:42;98263.47;;;10.88;75.62
33161;BME280;19522;45.656;11.302;2023-03-22T03:05:09;98260.06;;;10.79;75.69
33161;BME280;19522;45.656;11.302;2023-03-22T03:07:37;98237.22;;;10.73;75.52
33161;BME280;19522;45.656;11.302;2023-03-22T03:10:06;98272.31;;;10.97;75.36
33161;BME280;19522;45.656;11.302;2023-03-22T03:12:32;98266.31;;;11.01;74.88
33161;BME280;19522;45.656;11.302;2023-03-22T03:14:57;98270.41;;;10.90;75.27
33161;BME280;19522;45.656;11.302;2023-03-22T03:25:35;98268.19;;;11.01;75.17
33161;BME280;19522;45.656;11.302;2023-03-22T03:31:01;98268.88;;;11.10;74.80
33161;BME280;19522;45.656;11.302;2023-03-22T03:33:31;98250.78;;;10.95;74.46
33161;BME280;19522;45.656;11.302;2023-03-22T03:36:01;98242.66;;;10.95;74.30
33161;BME280;19522;45.656;11.302;2023-03-22T03:38:32;98270.25;;;10.99;75.21
33161;BME280;19522;45.656;11.302;2023-03-22T03:41:10;98259.91;;;11.09;74.42
33161;BME280;19522;45.656;11.302;2023-03-22T03:43:38;98273.72;;;11.14;74.00
33161;BME280;19522;45.656;11.302;2023-03-22T03:46:06;98282.25;;;11.11;74.22
33161;BME280;19522;45.656;11.302;2023-03-22T03:48:34;98271.38;;;11.11;74.22
33161;BME280;19522;45.656;11.302;2023-03-22T03:51:01;98222.91;;;10.65;74.78
33161;BME280;19522;45.656;11.302;2023-03-22T03:53:28;98274.91;;;10.83;75.57
33161;BME280;19522;45.656;11.302;2023-03-22T03:55:53;98281.94;;;10.78;75.87
33161;BME280;19522;45.656;11.302;2023-03-22T03:58:19;98273.19;;;10.75;76.17
33161;BME280;19522;45.656;11.302;2023-03-22T04:00:45;98289.69;;;10.59;76.96
33161;BME280;19522;45.656;11.302;2023-03-22T04:03:12;98280.41;;;10.47;77.68
33161;BME280;19522;45.656;11.302;2023-03-22T04:05:38;98289.31;;;10.62;77.14
33161;BME280;19522;45.656;11.302;2023-03-22T04:08:03;98284.84;;;10.54;77.05
33161;BME280;19522;45.656;11.302;2023-03-22T04:10:29;98288.59;;;10.53;77.34
33161;BME280;19522;45.656;11.302;2023-03-22T04:12:55;98283.94;;;10.47;78.00
33161;BME280;19522;45.656;11.302;2023-03-22T04:15:21;98279.81;;;10.51;77.91
33161;BME280;19522;45.656;11.302;2023-03-22T04:17:46;98284.16;;;10.46;78.08
33161;BME280;19522;45.656;11.302;2023-03-22T04:20:12;98266.44;;;10.35;78.36
33161;BME280;19522;45.656;11.302;2023-03-22T04:22:39;98280.84;;;10.50;77.99
33161;BME280;19522;45.656;11.302;2023-03-22T04:25:06;98278.00;;;10.58;77.58
33161;BME280;19522;45.656;11.302;2023-03-22T04:27:36;98279.50;;;10.61;77.22
33161;BME280;19522;45.656;11.302;2023-03-22T04:30:04;98277.63;;;10.62;77.14
33161;BME280;19522;45.656;11.302;2023-03-22T04:32:29;98280.94;;;10.57;77.50
33161;BME280;19522;45.656;11.302;2023-03-22T04:34:55;98262.34;;;10.82;75.88
33161;BME280;19522;45.656;11.302;2023-03-22T04:37:20;98274.66;;;10.78;76.19
33161;BME280;19522;45.656;11.302;2023-03-22T04:39:51;98261.78;;;10.65;76.15
33161;BME280;19522;45.656;11.302;2023-03-22T04:42:17;98273.22;;;10.82;75.93
33161;BME280;19522;45.656;11.302;2023-03-22T04:44:43;98276.66;;;10.91;75.58
33161;BME280;19522;45.656;11.302;2023-03-22T04:47:08;98250.78;;;10.95;75.08
33161;BME280;19522;45.656;11.302;2023-03-22T04:49:34;98263.88;;;11.13;74.59
33161;BME280;19522;45.656;11.302;2023-03-22T04:51:59;98265.50;;;11.07;74.96
33161;BME280;19522;45.656;11.302;2023-03-22T04:54:25;98268.78;;;10.96;75.58
33161;BME280;19522;45.656;11.302;2023-03-22T04:56:50;98271.38;;;10.83;75.71
33161;BME280;19522;45.656;11.302;2023-03-22T04:59:17;98273.91;;;10.63;76.67
33161;BME280;19522;45.656;11.302;2023-03-22T05:01:47;98275.69;;;10.55;77.28
33161;BME280;19522;45.656;11.302;2023-03-22T05:04:13;98276.25;;;10.51;78.23
33161;BME280;19522;45.656;11.302;2023-03-22T05:06:39;98270.63;;;10.74;77.26
33161;BME280;19522;45.656;11.302;2023-03-22T05:09:04;98274.91;;;10.83;76.47
33161;BME280;19522;45.656;11.302;2023-03-22T05:11:30;98274.59;;;10.93;76.06
33161;BME280;19522;45.656;11.302;2023-03-22T05:13:56;98277.44;;;10.85;76.56
33161;BME280;19522;45.656;11.302;2023-03-22T05:16:23;98280.41;;;10.90;76.57
33161;BME280;19522;45.656;11.302;2023-03-22T05:18:49;98273.19;;;10.75;76.86
33161;BME280;19522;45.656;11.302;2023-03-22T05:21:20;98254.84;;;10.41;77.65
33161;BME280;19522;45.656;11.302;2023-03-22T05:23:53;98262.44;;;10.46;78.16
33161;BME280;19522;45.656;11.302;2023-03-22T05:26:19;98279.78;;;10.66;78.23
33161;BME280;19522;45.656;11.302;2023-03-22T05:28:49;98257.66;;;10.69;77.26
33161;BME280;19522;45.656;11.302;2023-03-22T05:31:15;98222.03;;;10.57;76.67
33161;BME280;19522;45.656;11.302;2023-03-22T05:33:41;98275.28;;;11.02;76.33
33161;BME280;19522;45.656;11.302;2023-03-22T05:36:08;98271.22;;;10.91;76.26
33161;BME280;19522;45.656;11.302;2023-03-22T05:38:33;98284.94;;;10.83;77.19
33161;BME280;19522;45.656;11.302;2023-03-22T05:40:59;98286.88;;;10.67;77.65
33161;BME280;19522;45.656;11.302;2023-03-22T05:43:24;98287.19;;;10.57;78.53
33161;BME280;19522;45.656;11.302;2023-03-22T05:45:50;98288.88;;;10.58;78.42
33161;BME280;19522;45.656;11.302;2023-03-22T05:48:16;98292.41;;;10.59;78.86
33161;BME280;19522;45.656;11.302;2023-03-22T05:50:41;98282.13;;;10.54;78.66
33161;BME280;19522;45.656;11.302;2023-03-22T05:53:07;98295.22;;;10.66;78.23
33161;BME280;19522;45.656;11.302;2023-03-22T05:55:32;98299.69;;;10.73;78.52
33161;BME280;19522;45.656;11.302;2023-03-22T05:57:59;98293.81;;;10.91;77.67
33161;BME280;19522;45.656;11.302;2023-03-22T06:00:26;98295.09;;;10.96;77.22
33161;BME280;19522;45.656;11.302;2023-03-22T06:02:56;98295.09;;;10.96;77.10
33161;BME280;19522;45.656;11.302;2023-03-22T06:05:28;98292.75;;;10.93;77.22
33161;BME280;19522;45.656;11.302;2023-03-22T06:07:53;98292.00;;;10.99;76.45
33161;BME280;19522;45.656;11.302;2023-03-22T06:10:19;98300.59;;;11.02;76.62
33161;BME280;19522;45.656;11.302;2023-03-22T06:12:44;98164.25;;;10.05;76.95
33161;BME280;19522;45.656;11.302;2023-03-22T06:15:10;98306.41;;;10.99;76.64
33161;BME280;19522;45.656;11.302;2023-03-22T06:17:36;98300.31;;;10.97;76.91
33161;BME280;19522;45.656;11.302;2023-03-22T06:20:05;98290.25;;;11.13;76.62
33161;BME280;19522;45.656;11.302;2023-03-22T06:22:34;98292.88;;;11.28;75.88
33161;BME280;19522;45.656;11.302;2023-03-22T06:25:00;98301.75;;;11.15;76.19
33161;BME280;19522;45.656;11.302;2023-03-22T06:27:26;98281.00;;;11.07;76.23
33161;BME280;19522;45.656;11.302;2023-03-22T06:29:51;98291.91;;;11.14;76.20
33161;BME280;19522;45.656;11.302;2023-03-22T06:32:19;98306.47;;;11.06;76.74
33161;BME280;19522;45.656;11.302;2023-03-22T06:34:50;98293.59;;;11.15;76.51
33161;BME280;19522;45.656;11.302;2023-03-22T06:37:15;98301.09;;;11.34;76.20
33161;BME280;19522;45.656;11.302;2023-03-22T06:39:41;98285.53;;;11.28;75.81
33161;BME280;19522;45.656;11.302;2023-03-22T06:42:07;98305.34;;;11.44;75.75
33161;BME280;19522;45.656;11.302;2023-03-22T06:44:33;98308.38;;;11.34;75.95
33161;BME280;19522;45.656;11.302;2023-03-22T06:46:58;98312.31;;;11.53;75.48
33161;BME280;19522;45.656;11.302;2023-03-22T06:49:24;98308.09;;;11.50;75.96
33161;BME280;19522;45.656;11.302;2023-03-22T06:51:52;98303.88;;;11.48;76.02
33161;BME280;19522;45.656;11.302;2023-03-22T06:54:17;98293.66;;;11.50;75.14
33161;BME280;19522;45.656;11.302;2023-03-22T06:56:43;98305.56;;;11.49;75.61
33161;BME280;19522;45.656;11.302;2023-03-22T06:59:08;98295.78;;;11.54;74.90
33161;BME280;19522;45.656;11.302;2023-03-22T07:01:34;98317.88;;;11.73;74.52
33161;BME280;19522;45.656;11.302;2023-03-22T07:04:00;98312.06;;;11.76;74.33
33161;BME280;19522;45.656;11.302;2023-03-22T07:06:25;98317.28;;;11.78;74.20
33161;BME280;19522;45.656;11.302;2023-03-22T07:08:51;98320.44;;;11.81;74.52
33161;BME280;19522;45.656;11.302;2023-03-22T07:11:16;98317.13;;;11.86;74.57
33161;BME280;19522;45.656;11.302;2023-03-22T07:13:42;98315.09;;;11.95;73.75
33161;BME280;19522;45.656;11.302;2023-03-22T07:16:09;98323.25;;;11.95;73.59
33161;BME280;19522;45.656;11.302;2023-03-22T07:18:35;98326.66;;;12.04;73.60
33161;BME280;19522;45.656;11.302;2023-03-22T07:21:01;98325.72;;;12.18;72.70
33161;BME280;19522;45.656;11.302;2023-03-22T07:23:26;98284.88;;;12.18;71.65
33161;BME280;19522;45.656;11.302;2023-03-22T07:25:52;98290.53;;;12.23;71.65
33161;BME280;19522;45.656;11.302;2023-03-22T07:28:20;98323.94;;;12.45;71.31
33161;BME280;19522;45.656;11.302;2023-03-22T07:30:45;98309.50;;;12.52;70.63
33161;BME280;19522;45.656;11.302;2023-03-22T07:33:11;98318.78;;;12.77;69.45
33161;BME280;19522;45.656;11.302;2023-03-22T07:35:36;98301.03;;;12.88;68.98
33161;BME280;19522;45.656;11.302;2023-03-22T07:38:03;98309.88;;;13.17;67.50
33161;BME280;19522;45.656;11.302;2023-03-22T07:40:29;98319.09;;;13.36;66.86
33161;BME280;19522;45.656;11.302;2023-03-22T07:42:55;98310.88;;;13.90;64.11
33161;BME280;19522;45.656;11.302;2023-03-22T07:45:21;98311.34;;;14.46;62.04
33161;BME280;19522;45.656;11.302;2023-03-22T07:47:47;98314.06;;;14.91;60.67
33161;BME280;19522;45.656;11.302;2023-03-22T07:50:13;98313.38;;;15.53;58.60
33161;BME280;19522;45.656;11.302;2023-03-22T07:52:39;98311.38;;;16.11;56.43
33161;BME280;19522;45.656;11.302;2023-03-22T07:55:06;98302.75;;;16.63;54.21
33161;BME280;19522;45.656;11.302;2023-03-22T07:57:32;98309.91;;;17.25;52.13
33161;BME280;19522;45.656;11.302;2023-03-22T07:59:58;98309.00;;;17.67;49.60
33161;BME280;19522;45.656;11.302;2023-03-22T08:02:23;98309.28;;;18.01;49.44
33161;BME280;19522;45.656;11.302;2023-03-22T08:04:49;98309.22;;;18.25;48.44
33161;BME280;19522;45.656;11.302;2023-03-22T08:07:16;98306.53;;;18.54;48.14
33161;BME280;19522;45.656;11.302;2023-03-22T08:09:43;98310.22;;;18.60;48.33
33161;BME280;19522;45.656;11.302;2023-03-22T08:12:10;98308.53;;;18.71;47.41
33161;BME280;19522;45.656;11.302;2023-03-22T08:14:35;98300.97;;;18.37;47.07
33161;BME280;19522;45.656;11.302;2023-03-22T08:17:02;98307.38;;;18.55;46.70
33161;BME280;19522;45.656;11.302;2023-03-22T08:19:28;98309.97;;;18.61;47.30
33161;BME280;19522;45.656;11.302;2023-03-22T08:21:54;98308.66;;;18.52;46.81
33161;BME280;19522;45.656;11.302;2023-03-22T08:24:20;98261.22;;;17.92;46.49
33161;BME280;19522;45.656;11.302;2023-03-22T08:26:45;98306.38;;;17.84;47.95
33161;BME280;19522;45.656;11.302;2023-03-22T08:29:14;98315.56;;;17.90;49.04
33161;BME280;19522;45.656;11.302;2023-03-22T08:31:40;98312.28;;;17.34;48.51
33161;BME280;19522;45.656;11.302;2023-03-22T08:34:06;98323.41;;;17.39;49.73
33161;BME280;19522;45.656;11.302;2023-03-22T08:36:31;98325.25;;;17.81;49.50
33161;BME280;19522;45.656;11.302;2023-03-22T08:38:57;98320.22;;;17.89;49.24
33161;BME280;19522;45.656;11.302;2023-03-22T08:41:22;98312.81;;;18.26;48.84
33161;BME280;19522;45.656;11.302;2023-03-22T08:43:48;98318.50;;;18.48;46.95
33161;BME280;19522;45.656;11.302;2023-03-22T08:46:13;98314.72;;;19.07;46.16
33161;BME280;19522;45.656;11.302;2023-03-22T08:48:39;98305.59;;;19.69;45.21
33161;BME280;19522;45.656;11.302;2023-03-22T08:51:05;98306.97;;;20.06;45.01
33161;BME280;19522;45.656;11.302;2023-03-22T08:53:31;98306.94;;;20.23;44.03
33161;BME280;19522;45.656;11.302;2023-03-22T08:55:57;98295.44;;;20.09;42.96
33161;BME280;19522;45.656;11.302;2023-03-22T08:58:26;98310.06;;;19.58;43.40
33161;BME280;19522;45.656;11.302;2023-03-22T09:00:52;98304.47;;;19.19;44.54
33161;BME280;19522;45.656;11.302;2023-03-22T09:03:18;98313.81;;;18.89;44.92
33161;BME280;19522;45.656;11.302;2023-03-22T09:05:43;98305.34;;;18.50;45.43
33161;BME280;19522;45.656;11.302;2023-03-22T09:08:09;98296.00;;;17.98;47.34
33161;BME280;19522;45.656;11.302;2023-03-22T09:10:37;98295.19;;;18.50;46.63
33161;BME280;19522;45.656;11.302;2023-03-22T09:13:04;98309.38;;;18.06;46.93
33161;BME280;19522;45.656;11.302;2023-03-22T09:15:29;98290.25;;;17.88;47.90
33161;BME280;19522;45.656;11.302;2023-03-22T09:17:55;98303.25;;;18.28;47.72
33161;BME280;19522;45.656;11.302;2023-03-22T09:20:21;98294.91;;;18.52;47.02
33161;BME280;19522;45.656;11.302;2023-03-22T09:22:50;98301.31;;;18.41;46.91
33161;BME280;19522;45.656;11.302;2023-03-22T09:25:16;98318.19;;;18.20;47.46
33161;BME280;19522;45.656;11.302;2023-03-22T09:27:41;98307.25;;;18.49;46.34
33161;BME280;19522;45.656;11.302;2023-03-22T09:30:07;98307.75;;;18.34;47.65
33161;BME280;19522;45.656;11.302;2023-03-22T09:32:33;98303.28;;;18.16;47.51
33161;BME280;19522;45.656;11.302;2023-03-22T09:34:58;98304.97;;;18.58;48.02
33161;BME280;19522;45.656;11.302;2023-03-22T09:37:24;98310.63;;;18.80;46.24
33161;BME280;19522;45.656;11.302;2023-03-22T09:39:55;98303.00;;;18.30;46.76
33161;BME280;19522;45.656;11.302;2023-03-22T09:42:35;98302.41;;;18.68;45.89
33161;BME280;19522;45.656;11.302;2023-03-22T09:45:05;98284.22;;;18.38;45.87
33161;BME280;19522;45.656;11.302;2023-03-22T09:47:37;98307.13;;;18.85;46.41
33161;BME280;19522;45.656;11.302;2023-03-22T09:50:13;98307.91;;;18.68;46.51
33161;BME280;19522;45.656;11.302;2023-03-22T09:52:39;98305.66;;;18.65;45.61
33161;BME280;19522;45.656;11.302;2023-03-22T09:55:16;98299.63;;;18.80;46.56
33161;BME280;19522;45.656;11.302;2023-03-22T09:57:43;98279.53;;;18.51;46.76
33161;BME280;19522;45.656;11.302;2023-03-22T10:00:24;98238.19;;;18.46;47.51
33161;BME280;19522;45.656;11.302;2023-03-22T10:03:08;98290.41;;;18.46;46.34
33161;BME280;19522;45.656;11.302;2023-03-22T10:05:47;98289.13;;;18.36;46.51
33161;BME280;19522;45.656;11.302;2023-03-22T10:10:42;98299.13;;;18.83;46.68
33161;BME280;19522;45.656;11.302;2023-03-22T10:13:34;98299.81;;;18.62;45.61
33161;BME280;19522;45.656;11.302;2023-03-22T10:16:05;98291.44;;;18.57;46.50
33161;BME280;19522;45.656;11.302;2023-03-22T10:18:51;98277.75;;;18.74;45.79
33161;BME280;19522;45.656;11.302;2023-03-22T10:21:19;98290.56;;;19.09;45.51
33161;BME280;19522;45.656;11.302;2023-03-22T10:23:57;98290.97;;;19.35;45.13
33161;BME280;19522;45.656;11.302;2023-03-22T10:26:39;98295.22;;;19.25;46.83
33161;BME280;19522;45.656;11.302;2023-03-22T10:29:22;98290.19;;;19.05;46.86
33161;BME280;19522;45.656;11.302;2023-03-22T10:31:48;98295.34;;;19.02;46.35
33161;BME280;19522;45.656;11.302;2023-03-22T10:34:21;98291.66;;;18.96;46.45
33161;BME280;19522;45.656;11.302;2023-03-22T10:36:50;98270.88;;;18.88;46.60
33161;BME280;19522;45.656;11.302;2023-03-22T10:39:30;98282.28;;;19.26;46.96
33161;BME280;19522;45.656;11.302;2023-03-22T10:41:59;98279.00;;;18.95;46.62
33161;BME280;19522;45.656;11.302;2023-03-22T10:44:28;98271.63;;;19.12;46.64
33161;BME280;19522;45.656;11.302;2023-03-22T10:46:58;98276.19;;;19.07;46.04
33161;BME280;19522;45.656;11.302;2023-03-22T10:49:34;98277.38;;;19.28;46.06
33161;BME280;19522;45.656;11.302;2023-03-22T10:52:50;98269.72;;;19.47;47.00
33161;BME280;19522;45.656;11.302;2023-03-22T10:54:50;98268.28;;;19.27;45.84
33161;BME280;19522;45.656;11.302;2023-03-22T10:57:15;98261.84;;;19.39;45.36
33161;BME280;19522;45.656;11.302;2023-03-22T11:02:21;98265.69;;;19.89;45.08
33161;BME280;19522;45.656;11.302;2023-03-22T11:04:52;98256.38;;;19.78;43.78
33161;BME280;19522;45.656;11.302;2023-03-22T11:10:10;98250.34;;;19.25;44.48
33161;BME280;19522;45.656;11.302;2023-03-22T11:12:38;98257.53;;;19.43;43.82
33161;BME280;19522;45.656;11.302;2023-03-22T11:15:06;98254.75;;;19.60;44.76
33161;BME280;19522;45.656;11.302;2023-03-22T11:17:43;98223.41;;;19.83;44.22
33161;BME280;19522;45.656;11.302;2023-03-22T11:20:15;98241.72;;;19.72;43.85
33161;BME280;19522;45.656;11.302;2023-03-22T11:22:43;98255.97;;;19.86;43.66
33161;BME280;19522;45.656;11.302;2023-03-22T11:25:28;98223.28;;;19.56;43.93
33161;BME280;19522;45.656;11.302;2023-03-22T11:30:29;98246.97;;;19.74;44.22
33161;BME280;19522;45.656;11.302;2023-03-22T11:33:19;98247.53;;;19.37;44.46
33161;BME280;19522;45.656;11.302;2023-03-22T11:35:53;98228.91;;;19.44;45.33
33161;BME280;19522;45.656;11.302;2023-03-22T11:38:27;98247.00;;;19.40;45.25
33161;BME280;19522;45.656;11.302;2023-03-22T11:40:58;98246.88;;;19.69;44.85
33161;BME280;19522;45.656;11.302;2023-03-22T11:43:34;98238.38;;;19.87;43.90
33161;BME280;19522;45.656;11.302;2023-03-22T11:46:00;98237.66;;;19.41;44.53
33161;BME280;19522;45.656;11.302;2023-03-22T11:48:29;98232.09;;;19.36;44.61
33161;BME280;19522;45.656;11.302;2023-03-22T11:51:13;98235.75;;;19.41;45.05
33161;BME280;19522;45.656;11.302;2023-03-22T11:53:42;98234.31;;;19.39;43.92
33161;BME280;19522;45.656;11.302;2023-03-22T11:56:11;98231.41;;;19.45;43.89
33161;BME280;19522;45.656;11.302;2023-03-22T11:58:49;98200.28;;;19.62;43.19
33161;BME280;19522;45.656;11.302;2023-03-22T12:01:26;98220.25;;;20.14;43.19
33161;BME280;19522;45.656;11.302;2023-03-22T12:03:56;98218.66;;;19.96;43.17
33161;BME280;19522;45.656;11.302;2023-03-22T12:06:26;98216.31;;;19.87;42.47
33161;BME280;19522;45.656;11.302;2023-03-22T12:09:09;98191.41;;;19.60;43.48
33161;BME280;19522;45.656;11.302;2023-03-22T12:11:43;98216.00;;;20.06;42.81
33161;BME280;19522;45.656;11.302;2023-03-22T12:14:27;98218.66;;;19.96;42.83
33161;BME280;19522;45.656;11.302;2023-03-22T12:17:16;98194.81;;;20.06;42.14
33161;BME280;19522;45.656;11.302;2023-03-22T12:19:59;98212.44;;;20.05;42.71
33161;BME280;19522;45.656;11.302;2023-03-22T12:22:35;98211.84;;;20.03;42.44
33161;BME280;19522;45.656;11.302;2023-03-22T12:25:18;98208.53;;;20.23;42.10
33161;BME280;19522;45.656;11.302;2023-03-22T12:30:21;98185.59;;;20.45;41.26
33161;BME280;19522;45.656;11.302;2023-03-22T12:35:43;98189.00;;;20.30;41.65
33161;BME280;19522;45.656;11.302;2023-03-22T12:41:08;98186.09;;;19.92;41.95
33161;BME280;19522;45.656;11.302;2023-03-22T12:43:40;98191.28;;;19.89;42.21
33161;BME280;19522;45.656;11.302;2023-03-22T12:46:16;98186.19;;;19.81;42.00
33161;BME280;19522;45.656;11.302;2023-03-22T12:48:49;98189.63;;;20.10;41.26
33161;BME280;19522;45.656;11.302;2023-03-22T12:51:16;98176.34;;;20.07;40.80
33161;BME280;19522;45.656;11.302;2023-03-22T12:53:45;98180.38;;;20.21;41.04
33161;BME280;19522;45.656;11.302;2023-03-22T12:56:14;98174.66;;;20.06;40.80
33161;BME280;19522;45.656;11.302;2023-03-22T12:58:45;98173.00;;;20.27;40.79
33161;BME280;19522;45.656;11.302;2023-03-22T13:01:36;98169.34;;;20.21;41.07
33161;BME280;19522;45.656;11.302;2023-03-22T13:09:44;98166.53;;;20.16;40.94
33161;BME280;19522;45.656;11.302;2023-03-22T13:27:56;98140.31;;;20.14;40.86
33161;BME280;19522;45.656;11.302;2023-03-22T13:35:25;98135.56;;;19.65;41.25
33161;BME280;19522;45.656;11.302;2023-03-22T13:37:53;98127.19;;;19.54;41.18
33161;BME280;19522;45.656;11.302;2023-03-22T13:43:22;98117.25;;;19.98;40.01
33161;BME280;19522;45.656;11.302;2023-03-22T13:51:17;98136.63;;;20.30;40.23
33161;BME280;19522;45.656;11.302;2023-03-22T14:01:46;98072.31;;;20.79;38.56
33161;BME280;19522;45.656;11.302;2023-03-22T14:04:18;98110.38;;;21.63;37.24
33161;BME280;19522;45.656;11.302;2023-03-22T14:07:06;98111.22;;;21.21;38.46
33161;BME280;19522;45.656;11.302;2023-03-22T14:09:37;98106.78;;;20.77;38.58
33161;BME280;19522;45.656;11.302;2023-03-22T14:12:31;98104.09;;;20.87;38.29
33161;BME280;19522;45.656;11.302;2023-03-22T14:15:03;98105.53;;;20.95;39.30
33161;BME280;19522;45.656;11.302;2023-03-22T14:20:30;98099.69;;;20.86;37.93
33161;BME280;19522;45.656;11.302;2023-03-22T14:23:04;98029.78;;;20.43;38.83
33161;BME280;19522;45.656;11.302;2023-03-22T14:25:33;98077.16;;;21.05;38.75
33161;BME280;19522;45.656;11.302;2023-03-22T14:27:59;98079.69;;;21.11;38.43
33161;BME280;19522;45.656;11.302;2023-03-22T14:33:04;98081.44;;;21.28;37.36
33161;BME280;19522;45.656;11.302;2023-03-22T14:35:34;98084.44;;;21.16;37.45
33161;BME280;19522;45.656;11.302;2023-03-22T14:38:07;98085.19;;;21.06;37.95
33161;BME280;19522;45.656;11.302;2023-03-22T14:40:36;98074.88;;;20.91;37.50
33161;BME280;19522;45.656;11.302;2023-03-22T14:43:15;98075.06;;;20.79;38.20
33161;BME280;19522;45.656;11.302;2023-03-22T14:45:46;98069.06;;;20.60;38.59
33161;BME280;19522;45.656;11.302;2023-03-22T14:50:47;98069.41;;;20.96;38.27